Time;durP1;ratioP1;P1;durP2;ratioP2;P2;SDS_P1;SDS_P2;PMS_P1;PMS_P2;Temp;Humidity;BMP_temperature;BMP_pressure;BME280_temperature;BME280_humidity;BME280_pressure;Samples;Min_cycle;Max_cycle;Signal;HPM_P1;HPM_P2
2023/11/12 00:01:21;;;;;;;26.77;24.98;;;;;;;8.53;100.00;100275.78;4994999;28;20096;-75
2023/11/12 00:03:49;;;;;;;25.80;24.10;;;;;;;8.03;100.00;100273.47;4993740;28;20057;-75
2023/11/12 00:06:15;;;;;;;24.88;23.17;;;;;;;8.69;100.00;100277.25;4990833;28;20499;-75
2023/11/12 00:08:43;;;;;;;26.08;24.38;;;;;;;8.69;100.00;100278.03;4992749;28;20054;-75
2023/11/12 00:11:09;;;;;;;26.30;24.60;;;;;;;8.54;100.00;100273.97;4998504;28;20042;-75
2023/11/12 00:13:36;;;;;;;26.30;24.60;;;;;;;8.19;100.00;100287.31;4992307;28;20050;-75
2023/11/12 00:16:06;;;;;;;41.58;39.03;;;;;;;8.20;100.00;100276.56;4991735;28;20055;-75
2023/11/12 00:18:35;;;;;;;24.20;22.60;;;;;;;9.00;100.00;100279.25;4989710;28;20061;-75
2023/11/12 00:21:05;;;;;;;25.30;23.60;;;;;;;8.25;100.00;100284.69;4993669;28;20705;-75
2023/11/12 00:23:36;;;;;;;32.25;30.35;;;;;;;8.09;100.00;100282.44;4987260;28;20434;-75
2023/11/12 00:26:02;;;;;;;25.30;23.60;;;;;;;8.18;100.00;100277.78;4996881;28;20415;-75
2023/11/12 00:28:29;;;;;;;26.75;24.95;;;;;;;9.11;100.00;100285.75;4991492;28;20157;-76
2023/11/12 00:30:56;;;;;;;33.97;31.98;;;;;;;8.28;100.00;100283.47;4988154;28;20510;-76
2023/11/12 00:33:27;;;;;;;26.02;24.42;;;;;;;8.74;100.00;100287.19;4993829;28;20053;-75
2023/11/12 00:35:53;;;;;;;22.60;21.00;;;;;;;8.39;100.00;100287.41;4999220;28;20140;-75
2023/11/12 00:38:20;;;;;;;29.98;28.08;;;;;;;8.15;100.00;100289.56;4993610;28;20042;-75
2023/11/12 00:40:47;;;;;;;26.92;25.13;;;;;;;8.60;100.00;100289.84;4994923;28;20542;-75
2023/11/12 00:43:15;;;;;;;26.52;24.83;;;;;;;8.89;100.00;100296.56;4996161;28;20050;-75
2023/11/12 00:45:42;;;;;;;29.13;27.27;;;;;;;9.64;100.00;100285.59;4992400;28;20499;-76
2023/11/12 00:48:09;;;;;;;24.13;22.52;;;;;;;9.21;100.00;100295.94;4994669;28;20053;-76
2023/11/12 00:50:37;;;;;;;23.35;21.75;;;;;;;8.26;100.00;100291.63;4993420;28;20039;-76
2023/11/12 00:53:04;;;;;;;24.38;22.67;;;;;;;8.59;100.00;100301.44;4993735;28;20057;-75
2023/11/12 00:55:31;;;;;;;24.60;22.83;;;;;;;8.74;100.00;100306.53;4987146;28;20100;-75
2023/11/12 00:57:59;;;;;;;25.33;23.63;;;;;;;8.38;100.00;100315.69;4995810;28;20535;-75
2023/11/12 01:00:30;;;;;;;26.73;24.95;;;;;;;8.49;100.00;100293.09;5005854;28;20077;-75
2023/11/12 01:02:57;;;;;;;29.42;27.52;;;;;;;8.46;100.00;100293.50;5000837;28;20046;-75
2023/11/12 01:05:24;;;;;;;25.65;24.00;;;;;;;8.37;100.00;100299.97;4996575;28;20105;-75
2023/11/12 01:07:53;;;;;;;25.88;23.83;;;;;;;8.36;100.00;100295.72;4995753;28;20042;-75
2023/11/12 01:10:19;;;;;;;27.65;25.85;;;;;;;8.64;100.00;100301.66;5001375;28;20054;-75
2023/11/12 01:12:47;;;;;;;27.23;25.42;;;;;;;9.18;100.00;100302.44;4995215;28;20078;-75
2023/11/12 01:15:17;;;;;;;25.00;23.45;;;;;;;8.22;100.00;100306.25;5001146;28;20046;-75
2023/11/12 01:17:45;;;;;;;28.65;26.85;;;;;;;8.22;100.00;100308.91;5000623;28;20132;-75
2023/11/12 01:20:24;;;;;;;28.75;26.85;;;;;;;8.03;100.00;100304.38;5001977;28;20108;-75
2023/11/12 01:22:52;;;;;;;26.27;24.48;;;;;;;8.62;100.00;100306.38;4992614;28;20074;-76
2023/11/12 01:25:19;;;;;;;25.33;23.65;;;;;;;8.26;100.00;100306.69;5007989;28;20048;-75
2023/11/12 01:27:46;;;;;;;24.80;23.20;;;;;;;8.52;100.00;100313.06;5004463;28;20578;-75
2023/11/12 01:30:13;;;;;;;24.90;23.20;;;;;;;8.36;100.00;100312.41;5002260;28;20078;-75
2023/11/12 01:32:40;;;;;;;26.90;25.10;;;;;;;8.25;100.00;100303.22;4995197;28;20518;-75
2023/11/12 01:35:08;;;;;;;27.38;25.58;;;;;;;8.51;100.00;100301.66;4990955;28;20038;-75
2023/11/12 01:37:35;;;;;;;30.10;28.20;;;;;;;8.43;100.00;100305.31;5000886;28;20128;-75
2023/11/12 01:40:04;;;;;;;29.13;27.23;;;;;;;8.40;100.00;100299.59;4995653;28;20050;-75
2023/11/12 01:42:31;;;;;;;28.52;26.73;;;;;;;9.46;100.00;100302.16;4995780;28;20042;-76
2023/11/12 01:44:59;;;;;;;28.30;26.50;;;;;;;8.31;100.00;100308.72;5002656;28;20068;-75
2023/11/12 01:47:26;;;;;;;26.15;24.35;;;;;;;8.10;100.00;100315.78;4995046;28;20053;-75
2023/11/12 01:50:03;;;;;;;27.63;25.73;;;;;;;8.09;100.00;100324.75;4995104;28;20670;-75
2023/11/12 01:52:32;;;;;;;26.35;24.75;;;;;;;9.32;100.00;100322.63;4995072;28;20046;-75
2023/11/12 01:55:00;;;;;;;27.35;25.67;;;;;;;8.75;100.00;100326.72;4990797;28;20821;-75
2023/11/12 01:57:33;;;;;;;31.38;29.48;;;;;;;8.22;100.00;100313.38;4999059;28;20045;-75
2023/11/12 02:00:02;;;;;;;27.83;26.13;;;;;;;8.43;100.00;100330.97;4997015;28;20542;-76
2023/11/12 02:02:34;;;;;;;28.48;26.67;;;;;;;8.68;100.00;100328.53;4983321;28;20043;-75
2023/11/12 02:05:02;;;;;;;27.05;25.35;;;;;;;9.13;100.00;100328.75;4990056;28;20047;-75
2023/11/12 02:07:29;;;;;;;27.10;25.40;;;;;;;8.56;100.00;100315.09;5002626;28;20077;-75
2023/11/12 02:10:07;;;;;;;27.67;25.98;;;;;;;8.43;100.00;100337.06;5004333;28;20436;-75
2023/11/12 02:12:38;;;;;;;26.08;24.38;;;;;;;8.52;100.00;100331.59;4995324;28;20490;-76
2023/11/12 02:15:06;;;;;;;27.25;25.30;;;;;;;8.29;100.00;100332.75;5000581;28;20054;-75
2023/11/12 02:17:36;;;;;;;30.45;28.55;;;;;;;8.53;100.00;100327.91;4999022;28;20125;-75
2023/11/12 02:20:05;;;;;;;27.80;26.02;;;;;;;8.83;100.00;100331.81;4987959;28;20050;-75
2023/11/12 02:22:33;;;;;;;30.33;28.45;;;;;;;8.74;100.00;100337.50;5003621;28;20057;-76
2023/11/12 02:25:01;;;;;;;30.38;28.48;;;;;;;8.18;100.00;100331.50;5000811;28;20104;-75
2023/11/12 02:27:28;;;;;;;28.70;26.80;;;;;;;9.16;100.00;100334.44;5000973;28;20053;-75
2023/11/12 02:29:55;;;;;;;27.45;25.75;;;;;;;8.34;100.00;100329.50;4987209;28;20057;-75
2023/11/12 02:32:30;;;;;;;25.55;23.85;;;;;;;8.38;100.00;100331.56;4995113;28;20042;-75
2023/11/12 02:34:58;;;;;;;27.17;25.48;;;;;;;8.87;100.00;100319.81;4994786;28;20054;-75
2023/11/12 02:37:28;;;;;;;26.30;24.60;;;;;;;8.59;100.00;100322.63;4996690;28;20054;-74
2023/11/12 02:39:55;;;;;;;31.35;29.38;;;;;;;8.76;100.00;100309.00;4990648;28;20102;-75
2023/11/12 02:42:26;;;;;;;27.00;25.30;;;;;;;8.47;100.00;100317.13;4998336;28;20038;-75
2023/11/12 02:44:56;;;;;;;26.02;24.42;;;;;;;8.67;100.00;100324.28;4992128;28;20057;-75
2023/11/12 02:47:23;;;;;;;27.98;26.20;;;;;;;8.82;100.00;100326.72;4987834;28;20054;-76
2023/11/12 02:50:05;;;;;;;30.20;28.40;;;;;;;8.20;100.00;100332.13;4977495;28;20057;-75
2023/11/12 02:52:32;;;;;;;27.45;25.65;;;;;;;8.97;100.00;100321.22;4991963;28;20133;-75
2023/11/12 02:54:59;;;;;;;27.58;25.77;;;;;;;8.83;100.00;100333.63;4992190;28;20052;-75
2023/11/12 02:57:27;;;;;;;30.15;28.25;;;;;;;8.35;100.00;100326.66;4988514;28;20054;-75
2023/11/12 02:59:55;;;;;;;27.88;26.10;;;;;;;8.59;100.00;100333.22;4990959;28;20149;-75
2023/11/12 03:02:24;;;;;;;27.25;25.55;;;;;;;9.32;100.00;100337.69;4996631;28;20401;-76
2023/11/12 03:04:51;;;;;;;32.75;30.75;;;;;;;8.73;100.00;100335.88;4992466;28;20058;-75
2023/11/12 03:07:19;;;;;;;30.27;28.38;;;;;;;8.48;100.00;100339.94;4998339;28;20042;-75
2023/11/12 03:09:46;;;;;;;26.70;25.00;;;;;;;9.03;100.00;100346.91;4993580;28;20058;-75
2023/11/12 03:12:20;;;;;;;25.98;24.27;;;;;;;8.87;100.00;100353.44;4997788;28;20049;-75
2023/11/12 03:14:52;;;;;;;30.92;29.02;;;;;;;8.84;100.00;100338.75;4988196;28;20420;-75
2023/11/12 03:17:19;;;;;;;31.52;29.52;;;;;;;8.95;100.00;100351.34;5001123;28;20054;-75
2023/11/12 03:19:49;;;;;;;33.33;31.33;;;;;;;8.31;100.00;100361.63;4998146;28;20057;-75
2023/11/12 03:22:27;;;;;;;31.20;29.30;;;;;;;8.39;100.00;100359.66;4995186;28;20043;-75
2023/11/12 03:24:54;;;;;;;29.10;27.30;;;;;;;8.68;100.00;100360.31;4998137;28;20054;-75
2023/11/12 03:27:21;;;;;;;32.05;29.70;;;;;;;8.39;100.00;100370.25;5007335;28;20128;-75
2023/11/12 03:29:48;;;;;;;34.20;32.00;;;;;;;8.77;100.00;100361.75;4996693;28;20134;-75
2023/11/12 03:32:16;;;;;;;24.70;23.10;;;;;;;8.80;100.00;100361.34;4989302;28;20427;-75
2023/11/12 03:34:43;;;;;;;28.50;25.60;;;;;;;8.78;100.00;100365.22;4987456;28;20068;-75
2023/11/12 03:37:10;;;;;;;28.45;26.73;;;;;;;8.44;100.00;100357.25;4995014;28;20061;-75
2023/11/12 03:39:37;;;;;;;28.83;27.02;;;;;;;8.41;100.00;100359.44;4994627;28;20046;-76
2023/11/12 03:42:05;;;;;;;27.60;25.80;;;;;;;9.34;100.00;100364.78;4992117;28;20057;-75
2023/11/12 03:44:32;;;;;;;31.30;29.30;;;;;;;8.66;100.00;100365.00;4990569;28;20128;-75
2023/11/12 03:46:59;;;;;;;29.17;27.17;;;;;;;8.59;100.00;100366.81;4994040;28;20064;-75
2023/11/12 03:49:27;;;;;;;31.38;29.38;;;;;;;8.69;100.00;100357.47;5003442;28;20133;-75
2023/11/12 03:51:57;;;;;;;28.63;26.73;;;;;;;8.82;100.00;100366.44;4991242;28;20050;-75
2023/11/12 03:54:27;;;;;;;26.75;24.95;;;;;;;8.47;100.00;100370.06;4980466;28;20058;-75
2023/11/12 03:56:54;;;;;;;27.85;26.15;;;;;;;8.46;100.00;100380.84;4983910;28;20045;-75
2023/11/12 03:59:21;;;;;;;30.92;29.17;;;;;;;8.29;100.00;100395.41;5000483;28;20485;-75
2023/11/12 04:01:50;;;;;;;28.15;26.55;;;;;;;8.10;100.00;100392.50;4992264;28;20495;-75
2023/11/12 04:04:17;;;;;;;29.25;27.55;;;;;;;8.31;100.00;100401.34;4990662;28;20058;-75
2023/11/12 04:06:45;;;;;;;26.30;24.70;;;;;;;8.15;100.00;100405.16;4991939;28;20508;-75
2023/11/12 04:09:12;;;;;;;26.63;24.92;;;;;;;8.28;100.00;100413.13;4983642;28;20050;-75
2023/11/12 04:11:40;;;;;;;23.10;21.52;;;;;;;8.31;100.00;100420.66;4997301;28;20073;-75
2023/11/12 04:14:08;;;;;;;25.40;23.80;;;;;;;7.91;100.00;100412.56;4996469;28;20061;-75
2023/11/12 04:16:35;;;;;;;27.65;25.85;;;;;;;8.01;100.00;100413.00;4998946;28;20133;-75
2023/11/12 04:19:02;;;;;;;25.50;23.90;;;;;;;7.89;100.00;100419.06;4993132;28;20418;-75
2023/11/12 04:21:29;;;;;;;21.98;20.58;;;;;;;8.20;100.00;100413.28;4997481;28;20058;-75
2023/11/12 04:23:58;;;;;;;24.05;22.55;;;;;;;7.76;100.00;100417.97;4985347;28;20531;-75
2023/11/12 04:26:29;;;;;;;24.98;23.38;;;;;;;7.94;100.00;100429.88;4999529;28;20436;-74
2023/11/12 04:28:56;;;;;;;24.42;22.83;;;;;;;8.25;100.00;100422.28;4990499;28;20081;-75
2023/11/12 04:31:25;;;;;;;23.42;21.83;;;;;;;8.09;100.00;100422.63;4994988;28;20046;-75
2023/11/12 04:33:54;;;;;;;28.45;26.65;;;;;;;8.03;100.00;100432.16;4992635;28;20507;-75
2023/11/12 04:36:21;;;;;;;24.67;23.15;;;;;;;8.44;100.00;100423.41;4992094;28;20864;-75
2023/11/12 04:38:48;;;;;;;25.00;23.40;;;;;;;8.18;100.00;100428.56;5001366;28;20525;-75
2023/11/12 04:41:17;;;;;;;31.23;29.33;;;;;;;8.15;100.00;100413.91;4994568;28;20255;-75
2023/11/12 04:43:44;;;;;;;27.23;25.52;;;;;;;8.06;100.00;100424.84;4990177;28;20523;-75
2023/11/12 04:46:11;;;;;;;26.90;25.20;;;;;;;7.87;100.00;100413.97;4996753;28;20042;-75
2023/11/12 04:48:58;;;;;;;29.52;27.63;;;;;;;7.96;100.00;100425.22;4992087;28;20053;-75
2023/11/12 04:51:26;;;;;;;28.35;26.35;;;;;;;7.75;100.00;100431.41;4999003;28;20092;-75
2023/11/12 04:53:54;;;;;;;24.58;22.98;;;;;;;7.59;100.00;100421.91;4991592;28;20053;-76
2023/11/12 04:56:22;;;;;;;25.60;23.90;;;;;;;7.58;100.00;100423.75;4993645;28;20084;-76
2023/11/12 04:58:49;;;;;;;26.20;24.50;;;;;;;7.50;100.00;100426.56;4990016;28;20050;-75
2023/11/12 05:01:17;;;;;;;25.90;24.10;;;;;;;7.22;100.00;100428.34;5002155;28;20042;-74
2023/11/12 05:03:46;;;;;;;22.55;20.75;;;;;;;7.86;100.00;100427.38;4989883;28;20050;-75
2023/11/12 05:06:28;;;;;;;24.73;22.92;;;;;;;7.24;100.00;100429.00;4990263;28;20108;-75
2023/11/12 05:08:55;;;;;;;23.02;21.33;;;;;;;7.44;100.00;100434.41;4987887;28;20050;-75
2023/11/12 05:11:24;;;;;;;23.27;21.58;;;;;;;7.59;100.00;100437.78;4992630;28;20058;-75
2023/11/12 05:13:51;;;;;;;28.25;26.25;;;;;;;7.39;100.00;100431.56;4986604;28;20053;-75
2023/11/12 05:16:18;;;;;;;29.50;27.50;;;;;;;7.56;100.00;100438.16;4990536;28;20137;-75
2023/11/12 05:18:45;;;;;;;23.83;22.02;;;;;;;7.45;100.00;100449.28;4990092;28;21161;-75
2023/11/12 05:21:11;;;;;;;23.05;21.35;;;;;;;7.68;100.00;100451.66;4989028;28;20755;-75
2023/11/12 05:23:40;;;;;;;26.73;24.92;;;;;;;7.67;100.00;100461.44;4992735;28;20074;-75
2023/11/12 05:26:08;;;;;;;23.58;21.88;;;;;;;7.86;100.00;100467.03;4987259;28;20520;-75
2023/11/12 05:28:36;;;;;;;21.60;19.95;;;;;;;8.24;100.00;100470.91;4986765;28;20057;-75
2023/11/12 05:31:03;;;;;;;23.50;21.80;;;;;;;8.62;100.00;100475.81;4991311;28;20562;-75
2023/11/12 05:33:32;;;;;;;24.13;22.42;;;;;;;9.24;100.00;100478.38;4994609;28;20049;-75
2023/11/12 05:35:58;;;;;;;23.83;22.23;;;;;;;8.84;100.00;100491.53;4993461;28;20066;-75
2023/11/12 05:38:26;;;;;;;24.00;22.40;;;;;;;9.25;100.00;100499.34;4992523;28;20461;-75
2023/11/12 05:40:53;;;;;;;27.65;25.80;;;;;;;9.01;100.00;100500.72;4996293;28;20481;-75
2023/11/12 05:43:21;;;;;;;22.45;20.95;;;;;;;9.34;100.00;100506.09;4993057;28;20515;-75
2023/11/12 05:45:49;;;;;;;23.55;21.95;;;;;;;9.97;100.00;100504.84;4995407;28;20061;-75
2023/11/12 05:48:16;;;;;;;25.42;23.65;;;;;;;9.30;100.00;100512.81;4990738;28;20412;-75
2023/11/12 05:50:52;;;;;;;23.42;21.83;;;;;;;9.19;100.00;100518.69;4959317;28;20066;-75
2023/11/12 05:53:19;;;;;;;23.10;21.50;;;;;;;9.57;100.00;100518.13;4988911;28;20050;-75
2023/11/12 05:55:46;;;;;;;24.42;22.80;;;;;;;9.92;100.00;100526.66;4991508;28;20190;-76
2023/11/12 05:58:13;;;;;;;26.65;24.85;;;;;;;9.68;100.00;100529.94;4990945;28;20075;-75
2023/11/12 06:00:40;;;;;;;25.30;23.58;;;;;;;10.84;100.00;100526.66;4994447;28;20412;-75
2023/11/12 06:03:15;;;;;;;26.30;24.50;;;;;;;10.01;100.00;100530.75;4990075;28;20057;-75
2023/11/12 06:05:42;;;;;;;25.48;23.65;;;;;;;9.84;100.00;100535.69;4992818;28;20604;-76
2023/11/12 06:08:09;;;;;;;26.50;24.63;;;;;;;9.82;100.00;100531.59;4992666;28;20062;-75
2023/11/12 06:10:37;;;;;;;23.50;21.80;;;;;;;11.11;100.00;100527.31;4992013;28;20046;-75
2023/11/12 06:13:04;;;;;;;30.75;28.55;;;;;;;9.80;100.00;100537.13;4985032;28;20508;-75
2023/11/12 06:15:31;;;;;;;24.02;22.33;;;;;;;9.59;100.00;100539.94;5003944;28;20050;-76
2023/11/12 06:17:58;;;;;;;23.55;21.85;;;;;;;10.42;100.00;100552.75;4996878;28;21618;-75
2023/11/12 06:20:29;;;;;;;22.23;20.63;;;;;;;9.77;100.00;100558.75;4995363;28;20050;-75
2023/11/12 06:22:56;;;;;;;25.17;23.48;;;;;;;10.18;100.00;100565.63;4991927;28;20081;-75
2023/11/12 06:25:23;;;;;;;22.63;21.05;;;;;;;10.20;100.00;100562.78;4993237;28;20057;-75
2023/11/12 06:27:50;;;;;;;20.98;19.48;;;;;;;10.61;100.00;100557.19;4995788;28;20061;-75
2023/11/12 06:30:18;;;;;;;21.85;20.25;;;;;;;10.48;100.00;100571.31;4989300;28;20050;-75
2023/11/12 06:32:54;;;;;;;25.75;23.85;;;;;;;9.95;100.00;100584.63;4993575;28;20461;-75
2023/11/12 06:35:20;;;;;;;24.27;22.48;;;;;;;10.42;100.00;100585.44;5000913;28;20046;-75
2023/11/12 06:37:49;;;;;;;24.80;23.00;;;;;;;10.92;100.00;100596.31;4995578;28;20054;-75
2023/11/12 06:40:16;;;;;;;26.10;24.30;;;;;;;10.40;100.00;100592.78;4986826;28;20061;-75
2023/11/12 06:42:43;;;;;;;25.85;23.95;;;;;;;10.55;100.00;100605.81;4999615;28;20057;-74
2023/11/12 06:45:10;;;;;;;24.85;23.05;;;;;;;10.79;100.00;100604.31;4999817;28;20050;-75
2023/11/12 06:47:37;;;;;;;23.48;21.67;;;;;;;10.47;100.00;100600.75;4992836;28;20045;-76
2023/11/12 06:50:04;;;;;;;25.10;23.30;;;;;;;10.64;100.00;100607.22;4992115;28;20122;-75
2023/11/12 06:52:31;;;;;;;24.00;22.20;;;;;;;10.28;100.00;100610.34;4992702;28;20046;-75
2023/11/12 06:55:01;;;;;;;27.23;25.33;;;;;;;11.24;100.00;100610.44;4992040;28;20683;-75
2023/11/12 06:57:28;;;;;;;23.52;21.83;;;;;;;10.63;100.00;100618.06;4984216;28;20463;-76
2023/11/12 06:59:55;;;;;;;23.80;22.00;;;;;;;11.42;100.00;100598.28;4989130;28;20054;-76
2023/11/12 07:02:25;;;;;;;24.67;22.88;;;;;;;10.69;100.00;100617.22;4994698;28;20091;-75
2023/11/12 07:04:52;;;;;;;23.63;21.42;;;;;;;11.44;100.00;100604.22;4997874;28;20436;-76
2023/11/12 07:07:32;;;;;;;23.60;21.90;;;;;;;11.10;100.00;100624.03;4978956;28;20511;-75
2023/11/12 07:10:00;;;;;;;24.25;22.45;;;;;;;12.43;100.00;100607.13;4990792;28;20058;-76
2023/11/12 07:12:27;;;;;;;25.65;23.85;;;;;;;12.28;100.00;100615.44;4994145;28;20750;-75
2023/11/12 07:14:57;;;;;;;25.10;23.30;;;;;;;12.02;100.00;100625.31;4990903;28;20054;-76
2023/11/12 07:17:26;;;;;;;24.05;22.25;;;;;;;12.07;100.00;100622.00;4990116;28;20042;-75
2023/11/12 07:20:00;;;;;;;25.13;23.33;;;;;;;12.05;100.00;100635.53;4645491;28;10000367;-75
2023/11/12 07:22:51;;;;;;;25.65;23.75;;;;;;;11.89;100.00;100628.91;4989454;28;20840;-75
2023/11/12 07:25:19;;;;;;;22.75;21.00;;;;;;;12.34;100.00;100634.06;4994459;28;20434;-76
2023/11/12 07:27:48;;;;;;;23.17;21.27;;;;;;;13.26;100.00;100638.59;4988347;28;20046;-75
2023/11/12 07:30:15;;;;;;;22.80;21.00;;;;;;;12.70;100.00;100637.78;4994130;28;20076;-75
2023/11/12 07:32:42;;;;;;;23.20;21.40;;;;;;;13.12;100.00;100653.09;5000607;28;20058;-76
2023/11/12 07:35:10;;;;;;;24.13;22.27;;;;;;;12.18;100.00;100639.13;4989244;28;20047;-75
2023/11/12 07:37:43;;;;;;;23.65;21.75;;;;;;;12.14;100.00;100631.56;4983194;28;20065;-75
2023/11/12 07:40:12;;;;;;;22.45;20.65;;;;;;;12.20;100.00;100645.84;4996078;28;20125;-75
2023/11/12 07:42:40;;;;;;;21.50;19.90;;;;;;;12.36;100.00;100647.94;4995966;28;20072;-75
2023/11/12 07:45:09;;;;;;;21.75;20.05;;;;;;;11.70;100.00;100651.91;4988430;28;20060;-75
2023/11/12 07:47:36;;;;;;;23.67;21.77;;;;;;;11.84;100.00;100636.69;4991259;28;20050;-75
2023/11/12 07:50:04;;;;;;;24.13;22.13;;;;;;;11.21;100.00;100661.38;4995119;28;20185;-74
2023/11/12 07:52:31;;;;;;;24.42;22.52;;;;;;;12.52;100.00;100657.22;4991469;28;20050;-75
2023/11/12 07:54:58;;;;;;;27.23;25.02;;;;;;;11.69;100.00;100666.25;4995159;28;20125;-75
2023/11/12 07:57:25;;;;;;;23.42;21.42;;;;;;;11.94;100.00;100662.03;4995403;28;20504;-75
2023/11/12 07:59:54;;;;;;;24.63;22.63;;;;;;;12.72;100.00;100670.34;4996980;28;20057;-75
2023/11/12 08:02:23;;;;;;;23.10;21.20;;;;;;;12.18;100.00;100676.38;5002240;28;20050;-75
2023/11/12 08:04:50;;;;;;;24.08;21.98;;;;;;;12.68;100.00;100671.84;4999138;28;20049;-76
2023/11/12 08:07:23;;;;;;;25.40;23.30;;;;;;;12.63;100.00;100678.88;5002520;28;20054;-75
2023/11/12 08:09:50;;;;;;;23.40;21.50;;;;;;;12.43;100.00;100677.19;5002571;28;20058;-75
2023/11/12 08:12:17;;;;;;;25.75;23.65;;;;;;;11.84;100.00;100689.09;4995090;28;20058;-74
2023/11/12 08:14:48;;;;;;;26.38;24.33;;;;;;;11.62;100.00;100693.94;4988694;28;20050;-75
2023/11/12 08:17:17;;;;;;;25.15;23.25;;;;;;;11.46;100.00;100697.88;5001085;28;20061;-75
2023/11/12 08:19:45;;;;;;;23.00;21.20;;;;;;;11.67;100.00;100705.56;4993393;28;20050;-75
2023/11/12 08:22:11;;;;;;;22.33;20.50;;;;;;;11.94;100.00;100699.28;4995294;28;20050;-75
2023/11/12 08:24:45;;;;;;;24.30;22.50;;;;;;;12.70;100.00;100690.25;4990364;28;20042;-75
2023/11/12 08:27:12;;;;;;;24.25;22.15;;;;;;;11.98;100.00;100709.31;4985970;28;20065;-75
2023/11/12 08:29:39;;;;;;;25.08;23.17;;;;;;;12.67;100.00;100696.03;4992338;28;20054;-75
2023/11/12 08:32:06;;;;;;;23.50;21.70;;;;;;;13.54;100.00;100703.91;4995458;28;20058;-75
2023/11/12 08:34:34;;;;;;;24.63;22.73;;;;;;;13.35;100.00;100708.44;4994216;28;20068;-72
2023/11/12 08:37:03;;;;;;;24.73;22.83;;;;;;;12.48;100.00;100713.84;4992459;28;20046;-76
2023/11/12 08:39:31;;;;;;;22.30;20.60;;;;;;;12.15;100.00;100712.25;5004032;28;20053;-76
2023/11/12 08:41:58;;;;;;;22.10;20.30;;;;;;;12.58;100.00;100701.63;4995978;28;20050;-76
2023/11/12 08:44:25;;;;;;;21.45;19.75;;;;;;;12.11;100.00;100711.88;4989723;28;20136;-77
2023/11/12 08:46:53;;;;;;;22.67;20.88;;;;;;;12.35;100.00;100720.09;4998142;28;20404;-76
2023/11/12 08:49:25;;;;;;;23.95;22.15;;;;;;;12.72;100.00;100720.97;4992978;28;20038;-76
2023/11/12 08:51:53;;;;;;;23.80;21.90;;;;;;;12.10;100.00;100714.72;4998960;28;20046;-76
2023/11/12 08:54:29;;;;;;;22.02;20.33;;;;;;;12.33;100.00;100719.47;4985606;28;20511;-76
2023/11/12 08:56:57;;;;;;;22.13;20.33;;;;;;;12.25;100.00;100727.72;4989406;28;20133;-76
2023/11/12 08:59:29;;;;;;;22.13;20.42;;;;;;;12.51;100.00;100718.72;4993607;28;20045;-76
2023/11/12 09:01:55;;;;;;;23.10;21.20;;;;;;;11.78;100.00;100722.69;4996649;28;20061;-76
2023/11/12 09:04:23;;;;;;;23.30;21.40;;;;;;;12.11;100.00;100725.19;4990456;28;20046;-76
2023/11/12 09:06:50;;;;;;;22.92;21.02;;;;;;;12.43;100.00;100724.31;4997491;28;20137;-75
2023/11/12 09:09:18;;;;;;;22.20;20.30;;;;;;;12.13;100.00;100720.47;5002528;28;20128;-76
2023/11/12 09:11:45;;;;;;;24.05;22.15;;;;;;;12.30;100.00;100715.41;4997158;28;20069;-76
2023/11/12 09:14:15;;;;;;;24.50;22.50;;;;;;;12.54;100.00;100721.75;4997148;28;20042;-76
2023/11/12 09:16:44;;;;;;;23.55;21.75;;;;;;;12.73;100.00;100721.78;4989039;28;20054;-76
2023/11/12 09:19:14;;;;;;;25.27;23.25;;;;;;;12.32;100.00;100717.88;4999784;28;20042;-76
2023/11/12 09:21:42;;;;;;;26.48;24.48;;;;;;;13.03;100.00;100725.38;5007146;28;20450;-76
2023/11/12 09:24:10;;;;;;;23.23;21.40;;;;;;;14.14;100.00;100711.84;4999406;28;20069;-76
2023/11/12 09:26:39;;;;;;;24.15;22.15;;;;;;;13.05;100.00;100715.31;4995389;28;20046;-76
2023/11/12 09:29:06;;;;;;;25.65;23.75;;;;;;;13.20;100.00;100711.47;4999472;28;20050;-77
2023/11/12 09:31:51;;;;;;;27.50;25.50;;;;;;;13.15;100.00;100716.66;4994575;28;20482;-76
2023/11/12 09:34:19;;;;;;;32.42;30.13;;;;;;;12.93;100.00;100713.63;4976587;28;20038;-76
2023/11/12 09:36:55;;;;;;;33.65;31.20;;;;;;;13.03;100.00;100720.03;4993993;28;20050;-76
2023/11/12 09:39:23;;;;;;;36.55;33.95;;;;;;;13.13;100.00;100716.03;4992143;28;20051;-76
2023/11/12 09:41:55;;;;;;;32.53;30.13;;;;;;;12.80;100.00;100715.38;4999991;28;20683;-76
2023/11/12 09:44:27;;;;;;;32.60;30.25;;;;;;;12.70;100.00;100719.56;4992894;28;20046;-76
2023/11/12 09:47:06;;;;;;;34.25;31.75;;;;;;;13.43;100.00;100719.59;4999092;28;20499;-76
2023/11/12 09:49:33;;;;;;;31.83;29.42;;;;;;;13.25;100.00;100733.81;4994665;28;20456;-76
2023/11/12 09:52:01;;;;;;;32.22;29.98;;;;;;;12.64;100.00;100729.25;4995883;28;20057;-76
2023/11/12 09:54:29;;;;;;;35.28;32.78;;;;;;;12.64;100.00;100741.75;4995354;28;20522;-76
2023/11/12 09:56:57;;;;;;;34.80;32.30;;;;;;;12.74;100.00;100737.59;4995222;28;20054;-77
2023/11/12 09:59:27;;;;;;;34.15;31.65;;;;;;;12.83;100.00;100724.78;4987223;28;20529;-76
2023/11/12 10:01:54;;;;;;;35.47;32.88;;;;;;;12.55;100.00;100736.69;4989824;28;20061;-76
2023/11/12 10:04:21;;;;;;;34.35;31.73;;;;;;;12.36;100.00;100727.84;4989319;28;20056;-76
2023/11/12 10:06:50;;;;;;;34.33;31.73;;;;;;;12.67;100.00;100752.00;4993897;28;20104;-76
2023/11/12 10:09:26;;;;;;;29.58;27.27;;;;;;;12.98;100.00;100741.25;4989743;28;20090;-76
2023/11/12 10:11:53;;;;;;;32.30;29.90;;;;;;;13.62;100.00;100741.75;4993762;28;20042;-76
2023/11/12 10:14:24;;;;;;;34.13;31.52;;;;;;;13.41;100.00;100750.25;4996663;28;20055;-77
2023/11/12 10:17:06;;;;;;;34.38;31.88;;;;;;;13.34;100.00;100733.47;4994614;28;20050;-76
2023/11/12 10:19:34;;;;;;;34.53;32.13;;;;;;;13.00;100.00;100731.16;4994231;28;20047;-77
2023/11/12 10:22:03;;;;;;;23.67;21.88;;;;;;;13.04;100.00;100739.50;4994093;28;20054;-76
2023/11/12 10:24:31;;;;;;;21.88;20.10;;;;;;;13.05;100.00;100735.84;4991595;28;20045;-77
2023/11/12 10:27:03;;;;;;;25.73;23.83;;;;;;;12.56;100.00;100740.22;4995262;28;20042;-76
2023/11/12 10:29:31;;;;;;;24.90;23.00;;;;;;;12.99;100.00;100726.88;4992090;28;20052;-76
2023/11/12 10:31:59;;;;;;;21.48;19.77;;;;;;;13.01;100.00;100729.28;4992002;28;20058;-76
2023/11/12 10:34:26;;;;;;;22.75;21.05;;;;;;;12.71;100.00;100738.03;4997299;28;20050;-76
2023/11/12 10:37:03;;;;;;;26.65;24.65;;;;;;;12.97;100.00;100736.94;4994378;28;20587;-76
2023/11/12 10:39:40;;;;;;;24.63;22.73;;;;;;;13.18;93.94;100735.69;4993776;28;20499;-76
2023/11/12 10:42:09;;;;;;;23.63;21.83;;;;;;;13.10;100.00;100730.66;4990299;28;20050;-76
2023/11/12 10:44:38;;;;;;;23.77;21.88;;;;;;;12.87;100.00;100738.50;4992624;28;20051;-76
2023/11/12 10:47:11;;;;;;;24.38;22.38;;;;;;;12.75;100.00;100730.41;4992716;28;20042;-76
2023/11/12 10:49:40;;;;;;;25.45;23.45;;;;;;;12.72;100.00;100736.16;4994532;28;20046;-77
2023/11/12 10:52:08;;;;;;;24.42;22.45;;;;;;;12.73;100.00;100740.44;4995439;28;20054;-76
2023/11/12 10:54:37;;;;;;;26.13;24.13;;;;;;;12.85;100.00;100733.34;4994476;28;20503;-77
2023/11/12 10:57:05;;;;;;;23.45;21.55;;;;;;;12.83;100.00;100733.59;4995025;28;20487;-77
2023/11/12 10:59:35;;;;;;;26.23;24.23;;;;;;;12.88;100.00;100732.09;4986416;28;20047;-76
2023/11/12 11:02:04;;;;;;;23.10;21.20;;;;;;;12.81;100.00;100743.66;4988917;28;20050;-77
2023/11/12 11:04:33;;;;;;;22.85;21.05;;;;;;;12.61;100.00;100743.00;4991787;28;20058;-76
2023/11/12 11:07:00;;;;;;;25.58;23.52;;;;;;;13.04;100.00;100739.50;4987282;28;20046;-76
2023/11/12 11:09:29;;;;;;;25.90;23.80;;;;;;;12.83;100.00;100746.91;4995723;28;20945;-76
2023/11/12 11:11:56;;;;;;;23.60;21.50;;;;;;;13.12;100.00;100741.09;4996072;28;20046;-76
2023/11/12 11:14:24;;;;;;;24.80;22.80;;;;;;;13.21;100.00;100750.41;4992554;28;20042;-76